Map

Track Data

SID SEASON NUMBER BASIN SUBBASIN NAME ISO_TIME NATURE LAT LON WMO_WIND WMO_PRES WMO_AGENCY TRACK_TYPE DIST2LAND LANDFALL IFLAG USA_AGENCY USA_ATCF_ID USA_LAT USA_LON USA_RECORD USA_STATUS USA_WIND USA_PRES USA_SSHS USA_R34_NE USA_R34_SE USA_R34_SW USA_R34_NW USA_R50_NE USA_R50_SE USA_R50_SW USA_R50_NW USA_R64_NE USA_R64_SE USA_R64_SW USA_R64_NW USA_POCI USA_ROCI USA_RMW USA_EYE TOKYO_LAT TOKYO_LON TOKYO_GRADE TOKYO_WIND TOKYO_PRES TOKYO_R50_DIR TOKYO_R50_LONG TOKYO_R50_SHORT TOKYO_R30_DIR TOKYO_R30_LONG TOKYO_R30_SHORT TOKYO_LAND CMA_LAT CMA_LON CMA_CAT CMA_WIND CMA_PRES HKO_LAT HKO_LON HKO_CAT HKO_WIND HKO_PRES NEWDELHI_LAT NEWDELHI_LON NEWDELHI_GRADE NEWDELHI_WIND NEWDELHI_PRES NEWDELHI_CI NEWDELHI_DP NEWDELHI_POCI REUNION_LAT REUNION_LON REUNION_TYPE REUNION_WIND REUNION_PRES REUNION_TNUM REUNION_CI REUNION_RMW REUNION_R34_NE REUNION_R34_SE REUNION_R34_SW REUNION_R34_NW REUNION_R50_NE REUNION_R50_SE REUNION_R50_SW REUNION_R50_NW REUNION_R64_NE REUNION_R64_SE REUNION_R64_SW REUNION_R64_NW BOM_LAT BOM_LON BOM_TYPE BOM_WIND BOM_PRES BOM_TNUM BOM_CI BOM_RMW BOM_R34_NE BOM_R34_SE BOM_R34_SW BOM_R34_NW BOM_R50_NE BOM_R50_SE BOM_R50_SW BOM_R50_NW BOM_R64_NE BOM_R64_SE BOM_R64_SW BOM_R64_NW BOM_ROCI BOM_POCI BOM_EYE BOM_POS_METHOD BOM_PRES_METHOD NADI_LAT NADI_LON NADI_CAT NADI_WIND NADI_PRES WELLINGTON_LAT WELLINGTON_LON WELLINGTON_WIND WELLINGTON_PRES DS824_LAT DS824_LON DS824_STAGE DS824_WIND DS824_PRES TD9636_LAT TD9636_LON TD9636_STAGE TD9636_WIND TD9636_PRES TD9635_LAT TD9635_LON TD9635_WIND TD9635_PRES TD9635_ROCI NEUMANN_LAT NEUMANN_LON NEUMANN_CLASS NEUMANN_WIND NEUMANN_PRES MLC_LAT MLC_LON MLC_CLASS MLC_WIND MLC_PRES USA_GUST BOM_GUST BOM_GUST_PER REUNION_GUST REUNION_GUST_PER USA_SEAHGT USA_SEARAD_NE USA_SEARAD_SE USA_SEARAD_SW USA_SEARAD_NW STORM_SPEED STORM_DIR
1958203N19235 1958 57 EP MM NOT_NAMED 1958-07-21 12:00:00 TS 19.1000 -125.100 75 hurdat_epa main 1407 1407 O________OO___ hurdat_epa EP041958 19.1000 -125.100 HU 75 1 19.1000 -125.100 TC 75 19.1000 -125.100 4 10 270
1958203N19235 1958 57 EP MM NOT_NAMED 1958-07-21 15:00:00 TS 19.1017 -125.648 main 1445 1445 P________PP___ EP041958 19.1004 -125.653 HU 75 1 19.1004 -125.653 TC 75 19.1070 -125.630 4 10 270
1958203N19235 1958 57 EP MM NOT_NAMED 1958-07-21 18:00:00 TS 19.1021 -126.193 75 hurdat_epa main 1491 1491 O________OP___ hurdat_epa EP041958 19.1000 -126.200 HU 75 1 19.1000 -126.200 TC 75 19.1107 -126.167 4 10 270
1958203N19235 1958 57 EP MM NOT_NAMED 1958-07-21 21:00:00 TS 19.1016 -126.738 main 1530 1530 P________PP___ EP041958 19.0998 -126.743 HU 75 1 19.0998 -126.743 TC 75 19.1090 -126.721 4 10 270
1958203N19235 1958 57 EP MM NOT_NAMED 1958-07-22 00:00:00 TS 19.1000 -127.300 75 hurdat_epa main 1578 1578 O________OO___ hurdat_epa EP041958 19.1000 -127.300 HU 75 1 19.1000 -127.300 TC 75 19.1000 -127.300 4 11 270
1958203N19235 1958 57 EP MM NOT_NAMED 1958-07-22 03:00:00 TS 19.0967 -127.895 main 1627 1627 P________PP___ EP041958 19.0999 -127.893 HU 75 1 19.0999 -127.893 TC 75 19.0838 -127.906 4 11 270
1958203N19235 1958 57 EP MM NOT_NAMED 1958-07-22 06:00:00 TS 19.0940 -128.505 75 hurdat_epa main 1677 1677 O________OP___ hurdat_epa EP041958 19.1000 -128.500 HU 75 1 19.1000 -128.500 TC 75 19.0702 -128.523 4 12 270
1958203N19235 1958 57 EP MM NOT_NAMED 1958-07-22 09:00:00 TS 19.0942 -129.118 main 1727 1727 P________PP___ EP041958 19.0999 -129.115 HU 75 1 19.0999 -129.115 TC 75 19.0714 -129.128 4 11 270
1958203N19235 1958 57 EP MM NOT_NAMED 1958-07-22 12:00:00 TS 19.1000 -129.700 75 hurdat_epa main 1778 1778 O________OO___ hurdat_epa EP041958 19.1000 -129.700 HU 75 1 19.1000 -129.700 TC 75 19.1000 -129.700 4 11 270
1958203N19235 1958 57 EP MM NOT_NAMED 1958-07-22 15:00:00 TS 19.0876 -130.230 main 1821 1821 P________PP___ EP041958 19.0698 -130.223 HU 75 1 19.0698 -130.223 TC 75 19.1589 -130.259 4 10 272
1958203N19235 1958 57 EP MM NOT_NAMED 1958-07-22 18:00:00 TS 19.1295 -130.715 75 hurdat_epa main 1864 1864 O________OP___ hurdat_epa EP041958 19.1000 -130.700 HU 75 1 19.1000 -130.700 TC 75 19.2474 -130.777 4 9 283
1958203N19235 1958 57 EP MM NOT_NAMED 1958-07-22 21:00:00 TS 19.2945 -131.202 main 1896 1896 P________PP___ EP041958 19.2776 -131.195 HU 75 1 19.2776 -131.195 TC 75 19.3622 -131.231 4 9 294
1958203N19235 1958 57 EP MM NOT_NAMED 1958-07-23 00:00:00 TS 19.5000 -131.600 75 hurdat_epa main 1920 1920 O________OO___ hurdat_epa EP041958 19.5000 -131.600 HU 75 1 19.5000 -131.600 TC 75 19.5000 -131.600 4 7 300
1958203N19235 1958 57 EP MM NOT_NAMED 1958-07-23 03:00:00 TS 19.6496 -131.848 main 1932 1932 P________PP___ EP041958 19.6498 -131.845 HU 75 1 19.6498 -131.845 TC 75 19.6486 -131.862 4 5 308
1958203N19235 1958 57 EP MM NOT_NAMED 1958-07-23 06:00:00 TS 19.8038 -132.008 75 hurdat_epa main 1938 1933 O________OP___ hurdat_epa EP041958 19.8000 -132.000 HU 75 1 19.8000 -132.000 TC 75 19.8191 -132.040 4 5 320
1958203N19235 1958 57 EP MM NOT_NAMED 1958-07-23 09:00:00 TS 19.9950 -132.155 main 1945 1940 P________PP___ EP041958 19.9924 -132.150 HU 75 1 19.9924 -132.150 TC 75 20.0051 -132.174 4 5 325
1958203N19235 1958 57 EP MM NOT_NAMED 1958-07-23 12:00:00 TS 20.2000 -132.300 75 hurdat_epa main 1943 1943 O________OO___ hurdat_epa EP041958 20.2000 -132.300 HU 75 1 20.2000 -132.300 TC 75 20.2000 -132.300 4 5 321
1958203N19235 1958 57 EP MM NOT_NAMED 1958-07-23 15:00:00 TS 20.3970 -132.497 main 1951 1950 P________PP___ EP041958 20.4000 -132.500 HU 75 1 20.4000 -132.500 TC 75 20.3847 -132.487 4 5 317
1958203N19235 1958 57 EP MM NOT_NAMED 1958-07-23 18:00:00 TS 20.5955 -132.695 75 hurdat_epa main 1950 1938 O________OP___ hurdat_epa EP041958 20.6000 -132.700 HU 75 1 20.6000 -132.700 TC 75 20.5775 -132.673 4 5 319
1958203N19235 1958 57 EP MM NOT_NAMED 1958-07-23 21:00:00 TS 20.7903 -132.861 main 1944 1932 P________PP___ EP041958 20.7925 -132.865 HU 75 1 20.7925 -132.865 TC 75 20.7816 -132.847 4 5 325
1958203N19235 1958 57 EP MM NOT_NAMED 1958-07-24 00:00:00 TS 21.0000 -133.000 75 hurdat_epa main 1932 1921 O________OO___ hurdat_epa EP041958 21.0000 -133.000 HU 75 1 21.0000 -133.000 TC 75 21.0000 -133.000 4 5 333
1958203N19235 1958 57 EP MM NOT_NAMED 1958-07-24 03:00:00 TS 21.2411 -133.109 main 1921 1900 P________PP___ EP041958 21.2425 -133.108 HU 75 1 21.2425 -133.108 TC 75 21.2355 -133.114 4 5 339
1958203N19235 1958 57 EP MM NOT_NAMED 1958-07-24 06:00:00 TS 21.4970 -133.202 75 hurdat_epa main 1900 1889 O________OP___ hurdat_epa EP041958 21.5000 -133.200 HU 75 1 21.5000 -133.200 TC 75 21.4848 -133.208 4 5 341
1958203N19235 1958 57 EP MM NOT_NAMED 1958-07-24 09:00:00 TS 21.7483 -133.294 main 1889 1870 P________PP___ EP041958 21.7500 -133.293 HU 75 1 21.7500 -133.293 TC 75 21.7417 -133.298 4 5 340
1958203N19235 1958 57 EP MM NOT_NAMED 1958-07-24 12:00:00 TS 22.0000 -133.400 75 hurdat_epa main 1870 1859 O________OO___ hurdat_epa EP041958 22.0000 -133.400 HU 75 1 22.0000 -133.400 TC 75 22.0000 -133.400 4 6 335
1958203N19235 1958 57 EP MM NOT_NAMED 1958-07-24 15:00:00 TS 22.2516 -133.541 main 1851 1847 P________PP___ EP041958 22.2500 -133.543 HU 75 1 22.2500 -133.543 TC 75 22.2581 -133.536 4 6 331
1958203N19235 1958 57 EP MM NOT_NAMED 1958-07-24 18:00:00 TS 22.5030 -133.697 75 hurdat_epa main 1847 1837 O________OP___ hurdat_epa EP041958 22.5000 -133.700 HU 75 1 22.5000 -133.700 TC 75 22.5150 -133.685 4 6 331
1958203N19235 1958 57 EP MM NOT_NAMED 1958-07-24 21:00:00 TS 22.7589 -133.848 main 1829 1826 P________PP___ EP041958 22.7575 -133.850 HU 75 1 22.7575 -133.850 TC 75 22.7644 -133.842 4 6 331
1958203N19235 1958 57 EP MM NOT_NAMED 1958-07-25 00:00:00 TS 23.0000 -134.000 75 hurdat_epa main 1826 1817 O________OO___ hurdat_epa EP041958 23.0000 -134.000 HU 75 1 23.0000 -134.000 TC 75 23.0000 -134.000 4 5 328
1958203N19235 1958 57 EP MM NOT_NAMED 1958-07-25 03:00:00 TS 23.2095 -134.151 main 1824 1815 P________PP___ EP041958 23.2075 -134.150 HU 75 1 23.2075 -134.150 TC 75 23.2175 -134.154 4 5 326
1958203N19235 1958 57 EP MM NOT_NAMED 1958-07-25 06:00:00 TS 23.4040 -134.301 75 hurdat_epa main 1815 1806 O________OP___ hurdat_epa EP041958 23.4000 -134.300 HU 75 1 23.4000 -134.300 TC 75 23.4201 -134.305 4 5 325
1958203N19235 1958 57 EP MM NOT_NAMED 1958-07-25 09:00:00 TS 23.6005 -134.451 main 1813 1805 P________PP___ EP041958 23.5975 -134.450 HU 75 1 23.5975 -134.450 TC 75 23.6126 -134.453 4 5 325
1958203N19235 1958 57 EP MM NOT_NAMED 1958-07-25 12:00:00 TS 23.8000 -134.600 75 hurdat_epa main 1805 O________OO___ hurdat_epa EP041958 23.8000 -134.600 HU 75 1 23.8000 -134.600 TC 75 23.8000 -134.600 4 5 326

About IBTrACS Database

This database is a web-friendly format of International Best Track Archive for Climate Stewardship (IBTrACS), a global best track data archive curated by NOAA dating back to 1842.

Updated: 2021-11-26